sensor_id;sensor_type;location;lat;lon;timestamp;temperature;humidity
439;DHT22;206;48.782;9.252;2023-11-19T00:02:19;10.40;73.10
439;DHT22;206;48.782;9.252;2023-11-19T00:04:44;10.40;73.10
439;DHT22;206;48.782;9.252;2023-11-19T00:07:10;10.40;74.10
439;DHT22;206;48.782;9.252;2023-11-19T00:09:37;10.50;73.70
439;DHT22;206;48.782;9.252;2023-11-19T00:12:04;10.60;73.30
439;DHT22;206;48.782;9.252;2023-11-19T00:14:30;10.60;73.30
439;DHT22;206;48.782;9.252;2023-11-19T00:16:56;10.60;73.30
439;DHT22;206;48.782;9.252;2023-11-19T00:19:22;10.60;72.80
439;DHT22;206;48.782;9.252;2023-11-19T00:21:47;10.60;73.30
439;DHT22;206;48.782;9.252;2023-11-19T00:24:13;10.70;73.60
439;DHT22;206;48.782;9.252;2023-11-19T00:26:41;10.70;74.10
439;DHT22;206;48.782;9.252;2023-11-19T00:29:07;10.70;73.40
439;DHT22;206;48.782;9.252;2023-11-19T00:31:33;10.70;74.90
439;DHT22;206;48.782;9.252;2023-11-19T00:33:58;10.70;75.20
439;DHT22;206;48.782;9.252;2023-11-19T00:36:24;10.70;75.30
439;DHT22;206;48.782;9.252;2023-11-19T00:38:51;10.80;75.90
439;DHT22;206;48.782;9.252;2023-11-19T00:41:18;10.80;75.80
439;DHT22;206;48.782;9.252;2023-11-19T00:43:44;10.80;75.80
439;DHT22;206;48.782;9.252;2023-11-19T00:46:09;10.90;75.90
439;DHT22;206;48.782;9.252;2023-11-19T00:48:36;10.90;75.90
439;DHT22;206;48.782;9.252;2023-11-19T00:51:02;10.90;76.10
439;DHT22;206;48.782;9.252;2023-11-19T00:53:30;11.00;75.50
439;DHT22;206;48.782;9.252;2023-11-19T00:55:55;10.90;75.40
439;DHT22;206;48.782;9.252;2023-11-19T00:58:21;10.90;77.20
439;DHT22;206;48.782;9.252;2023-11-19T01:00:47;10.90;77.80
439;DHT22;206;48.782;9.252;2023-11-19T01:03:13;10.90;78.40
439;DHT22;206;48.782;9.252;2023-11-19T01:05:40;10.90;79.10
439;DHT22;206;48.782;9.252;2023-11-19T01:08:05;11.00;79.70
439;DHT22;206;48.782;9.252;2023-11-19T01:10:31;11.00;79.80
439;DHT22;206;48.782;9.252;2023-11-19T01:12:57;11.00;80.20
439;DHT22;206;48.782;9.252;2023-11-19T01:15:23;11.10;80.10
439;DHT22;206;48.782;9.252;2023-11-19T01:17:49;11.10;79.70
439;DHT22;206;48.782;9.252;2023-11-19T01:20:14;11.20;79.70
439;DHT22;206;48.782;9.252;2023-11-19T01:22:40;11.20;79.90
439;DHT22;206;48.782;9.252;2023-11-19T01:25:06;11.20;80.30
439;DHT22;206;48.782;9.252;2023-11-19T01:27:32;11.30;79.30
439;DHT22;206;48.782;9.252;2023-11-19T01:30:00;11.30;78.80
439;DHT22;206;48.782;9.252;2023-11-19T01:32:28;11.30;78.80
439;DHT22;206;48.782;9.252;2023-11-19T01:34:54;11.30;78.80
439;DHT22;206;48.782;9.252;2023-11-19T01:37:19;11.40;78.90
439;DHT22;206;48.782;9.252;2023-11-19T01:39:45;11.50;79.10
439;DHT22;206;48.782;9.252;2023-11-19T01:42:10;11.50;79.20
439;DHT22;206;48.782;9.252;2023-11-19T01:44:37;11.50;79.10
439;DHT22;206;48.782;9.252;2023-11-19T01:47:03;11.50;79.00
439;DHT22;206;48.782;9.252;2023-11-19T01:49:31;11.60;78.60
439;DHT22;206;48.782;9.252;2023-11-19T01:51:57;11.60;77.20
439;DHT22;206;48.782;9.252;2023-11-19T01:54:24;11.60;77.30
439;DHT22;206;48.782;9.252;2023-11-19T01:56:50;11.60;77.10
439;DHT22;206;48.782;9.252;2023-11-19T01:59:16;11.70;77.50
439;DHT22;206;48.782;9.252;2023-11-19T02:01:42;11.70;77.70
439;DHT22;206;48.782;9.252;2023-11-19T02:04:08;11.70;78.30
439;DHT22;206;48.782;9.252;2023-11-19T02:06:38;11.70;78.00
439;DHT22;206;48.782;9.252;2023-11-19T02:09:06;11.70;79.20
439;DHT22;206;48.782;9.252;2023-11-19T02:11:34;11.70;79.50
439;DHT22;206;48.782;9.252;2023-11-19T02:14:00;11.70;79.20
439;DHT22;206;48.782;9.252;2023-11-19T02:16:26;11.70;79.60
439;DHT22;206;48.782;9.252;2023-11-19T02:18:51;11.70;80.40
439;DHT22;206;48.782;9.252;2023-11-19T02:21:17;11.70;80.60
439;DHT22;206;48.782;9.252;2023-11-19T02:23:43;11.70;81.20
439;DHT22;206;48.782;9.252;2023-11-19T02:26:23;11.70;81.80
439;DHT22;206;48.782;9.252;2023-11-19T02:28:50;11.70;82.00
439;DHT22;206;48.782;9.252;2023-11-19T02:31:15;11.80;82.50
439;DHT22;206;48.782;9.252;2023-11-19T02:33:41;11.80;82.70
439;DHT22;206;48.782;9.252;2023-11-19T02:36:08;11.80;82.10
439;DHT22;206;48.782;9.252;2023-11-19T02:38:34;11.80;81.50
439;DHT22;206;48.782;9.252;2023-11-19T02:41:03;11.90;81.10
439;DHT22;206;48.782;9.252;2023-11-19T02:43:31;11.90;81.10
439;DHT22;206;48.782;9.252;2023-11-19T02:46:02;11.80;81.00
439;DHT22;206;48.782;9.252;2023-11-19T02:48:27;11.90;81.30
439;DHT22;206;48.782;9.252;2023-11-19T02:50:53;11.90;80.90
439;DHT22;206;48.782;9.252;2023-11-19T02:53:19;11.90;81.50
439;DHT22;206;48.782;9.252;2023-11-19T02:55:47;11.90;81.60
439;DHT22;206;48.782;9.252;2023-11-19T02:58:15;11.90;82.30
439;DHT22;206;48.782;9.252;2023-11-19T03:00:49;11.90;82.10
439;DHT22;206;48.782;9.252;2023-11-19T03:03:19;11.90;81.50
439;DHT22;206;48.782;9.252;2023-11-19T03:05:51;11.90;81.80
439;DHT22;206;48.782;9.252;2023-11-19T03:08:17;11.90;82.30
439;DHT22;206;48.782;9.252;2023-11-19T03:10:42;12.00;82.80
439;DHT22;206;48.782;9.252;2023-11-19T03:13:12;11.90;83.30
439;DHT22;206;48.782;9.252;2023-11-19T03:15:39;11.90;83.60
439;DHT22;206;48.782;9.252;2023-11-19T03:18:05;11.90;84.20
439;DHT22;206;48.782;9.252;2023-11-19T03:20:30;11.90;84.40
439;DHT22;206;48.782;9.252;2023-11-19T03:22:56;11.90;84.80
439;DHT22;206;48.782;9.252;2023-11-19T03:25:27;11.90;84.20
439;DHT22;206;48.782;9.252;2023-11-19T03:27:58;11.80;84.30
439;DHT22;206;48.782;9.252;2023-11-19T03:30:24;11.90;84.20
439;DHT22;206;48.782;9.252;2023-11-19T03:32:50;11.90;85.20
439;DHT22;206;48.782;9.252;2023-11-19T03:35:15;11.80;84.50
439;DHT22;206;48.782;9.252;2023-11-19T03:37:41;11.80;85.10
439;DHT22;206;48.782;9.252;2023-11-19T03:40:07;11.80;85.90
439;DHT22;206;48.782;9.252;2023-11-19T03:42:33;11.80;85.50
439;DHT22;206;48.782;9.252;2023-11-19T03:44:58;11.80;85.10
439;DHT22;206;48.782;9.252;2023-11-19T03:47:24;11.80;85.20
439;DHT22;206;48.782;9.252;2023-11-19T03:49:50;11.80;85.10
439;DHT22;206;48.782;9.252;2023-11-19T03:52:17;11.80;85.20
439;DHT22;206;48.782;9.252;2023-11-19T03:54:43;11.80;84.90
439;DHT22;206;48.782;9.252;2023-11-19T03:57:09;11.80;84.40
439;DHT22;206;48.782;9.252;2023-11-19T03:59:36;11.80;84.80
439;DHT22;206;48.782;9.252;2023-11-19T04:02:02;11.80;85.40
439;DHT22;206;48.782;9.252;2023-11-19T04:04:28;11.80;85.90
439;DHT22;206;48.782;9.252;2023-11-19T04:06:55;11.80;85.90
439;DHT22;206;48.782;9.252;2023-11-19T04:09:21;11.80;86.50
439;DHT22;206;48.782;9.252;2023-11-19T04:11:47;11.80;86.50
439;DHT22;206;48.782;9.252;2023-11-19T04:14:15;11.80;86.20
439;DHT22;206;48.782;9.252;2023-11-19T04:16:46;11.80;86.50
439;DHT22;206;48.782;9.252;2023-11-19T04:19:12;11.80;86.70
439;DHT22;206;48.782;9.252;2023-11-19T04:21:41;11.80;87.20
439;DHT22;206;48.782;9.252;2023-11-19T04:24:11;11.80;87.60
439;DHT22;206;48.782;9.252;2023-11-19T04:26:44;11.90;88.50
439;DHT22;206;48.782;9.252;2023-11-19T04:29:12;11.90;89.60
439;DHT22;206;48.782;9.252;2023-11-19T04:31:38;11.90;89.30
439;DHT22;206;48.782;9.252;2023-11-19T04:34:05;12.00;89.70
439;DHT22;206;48.782;9.252;2023-11-19T04:36:31;12.00;90.20
439;DHT22;206;48.782;9.252;2023-11-19T04:38:58;12.00;90.00
439;DHT22;206;48.782;9.252;2023-11-19T04:41:25;12.00;90.20
439;DHT22;206;48.782;9.252;2023-11-19T04:43:51;12.10;90.00
439;DHT22;206;48.782;9.252;2023-11-19T04:46:16;12.10;90.40
439;DHT22;206;48.782;9.252;2023-11-19T04:48:42;12.10;90.10
439;DHT22;206;48.782;9.252;2023-11-19T04:51:07;12.20;89.90
439;DHT22;206;48.782;9.252;2023-11-19T04:53:35;12.20;89.70
439;DHT22;206;48.782;9.252;2023-11-19T04:56:00;12.20;89.40
439;DHT22;206;48.782;9.252;2023-11-19T04:58:29;12.30;89.20
439;DHT22;206;48.782;9.252;2023-11-19T05:00:54;12.30;89.30
439;DHT22;206;48.782;9.252;2023-11-19T05:03:20;12.40;88.30
439;DHT22;206;48.782;9.252;2023-11-19T05:05:47;12.40;87.70
439;DHT22;206;48.782;9.252;2023-11-19T05:08:12;12.50;88.00
439;DHT22;206;48.782;9.252;2023-11-19T05:10:38;12.50;87.40
439;DHT22;206;48.782;9.252;2023-11-19T05:13:03;12.60;87.30
439;DHT22;206;48.782;9.252;2023-11-19T05:15:29;12.60;86.00
439;DHT22;206;48.782;9.252;2023-11-19T05:17:55;12.70;85.70
439;DHT22;206;48.782;9.252;2023-11-19T05:20:20;12.70;84.90
439;DHT22;206;48.782;9.252;2023-11-19T05:22:46;12.70;84.10
439;DHT22;206;48.782;9.252;2023-11-19T05:25:12;12.80;84.10
439;DHT22;206;48.782;9.252;2023-11-19T05:27:38;12.80;83.20
439;DHT22;206;48.782;9.252;2023-11-19T05:30:05;12.80;83.10
439;DHT22;206;48.782;9.252;2023-11-19T05:32:34;12.80;82.90
439;DHT22;206;48.782;9.252;2023-11-19T05:35:00;12.80;83.40
439;DHT22;206;48.782;9.252;2023-11-19T05:37:25;12.90;83.40
439;DHT22;206;48.782;9.252;2023-11-19T05:39:51;12.90;82.80
439;DHT22;206;48.782;9.252;2023-11-19T05:42:17;12.90;82.60
439;DHT22;206;48.782;9.252;2023-11-19T05:44:43;12.90;82.20
439;DHT22;206;48.782;9.252;2023-11-19T05:47:08;13.00;82.60
439;DHT22;206;48.782;9.252;2023-11-19T05:49:34;13.00;80.70
439;DHT22;206;48.782;9.252;2023-11-19T05:51:59;13.00;81.60
439;DHT22;206;48.782;9.252;2023-11-19T05:54:27;13.00;81.00
439;DHT22;206;48.782;9.252;2023-11-19T05:56:52;13.10;80.60
439;DHT22;206;48.782;9.252;2023-11-19T05:59:20;13.10;80.60
439;DHT22;206;48.782;9.252;2023-11-19T06:01:45;13.10;80.60
439;DHT22;206;48.782;9.252;2023-11-19T06:04:11;13.10;80.10
439;DHT22;206;48.782;9.252;2023-11-19T06:06:37;13.10;80.60
439;DHT22;206;48.782;9.252;2023-11-19T06:09:03;13.10;80.60
439;DHT22;206;48.782;9.252;2023-11-19T06:11:29;13.10;80.60
439;DHT22;206;48.782;9.252;2023-11-19T06:13:55;13.10;80.60
439;DHT22;206;48.782;9.252;2023-11-19T06:16:21;13.10;81.20
439;DHT22;206;48.782;9.252;2023-11-19T06:18:47;13.10;81.00
439;DHT22;206;48.782;9.252;2023-11-19T06:21:13;13.10;80.60
439;DHT22;206;48.782;9.252;2023-11-19T06:23:38;13.10;81.40
439;DHT22;206;48.782;9.252;2023-11-19T06:26:04;13.10;81.80
439;DHT22;206;48.782;9.252;2023-11-19T06:28:31;13.10;81.70
439;DHT22;206;48.782;9.252;2023-11-19T06:30:56;13.10;81.90
439;DHT22;206;48.782;9.252;2023-11-19T06:33:26;13.10;81.90
439;DHT22;206;48.782;9.252;2023-11-19T06:35:52;13.10;82.10
439;DHT22;206;48.782;9.252;2023-11-19T06:38:18;13.10;81.90
439;DHT22;206;48.782;9.252;2023-11-19T06:40:44;13.10;82.30
439;DHT22;206;48.782;9.252;2023-11-19T06:43:09;13.20;81.70
439;DHT22;206;48.782;9.252;2023-11-19T06:45:35;13.20;80.70
439;DHT22;206;48.782;9.252;2023-11-19T06:48:02;13.20;80.70
439;DHT22;206;48.782;9.252;2023-11-19T06:50:32;13.20;81.20
439;DHT22;206;48.782;9.252;2023-11-19T06:52:59;13.30;81.20
439;DHT22;206;48.782;9.252;2023-11-19T06:55:25;13.30;81.30
439;DHT22;206;48.782;9.252;2023-11-19T06:57:51;13.30;81.80
439;DHT22;206;48.782;9.252;2023-11-19T07:00:17;13.30;81.50
439;DHT22;206;48.782;9.252;2023-11-19T07:02:43;13.30;81.80
439;DHT22;206;48.782;9.252;2023-11-19T07:05:10;13.40;81.60
439;DHT22;206;48.782;9.252;2023-11-19T07:07:37;13.40;80.90
439;DHT22;206;48.782;9.252;2023-11-19T07:10:03;13.40;80.90
439;DHT22;206;48.782;9.252;2023-11-19T07:12:30;13.40;80.20
439;DHT22;206;48.782;9.252;2023-11-19T07:14:55;13.40;80.00
439;DHT22;206;48.782;9.252;2023-11-19T07:17:21;13.40;80.90
439;DHT22;206;48.782;9.252;2023-11-19T07:19:50;13.40;80.30
439;DHT22;206;48.782;9.252;2023-11-19T07:22:15;13.40;80.90
439;DHT22;206;48.782;9.252;2023-11-19T07:24:41;13.40;80.10
439;DHT22;206;48.782;9.252;2023-11-19T07:27:07;13.50;79.80
439;DHT22;206;48.782;9.252;2023-11-19T07:29:34;13.50;79.30
439;DHT22;206;48.782;9.252;2023-11-19T07:32:00;13.50;79.00
439;DHT22;206;48.782;9.252;2023-11-19T07:34:27;13.40;79.30
439;DHT22;206;48.782;9.252;2023-11-19T07:36:54;13.50;79.70
439;DHT22;206;48.782;9.252;2023-11-19T07:39:22;13.50;79.90
439;DHT22;206;48.782;9.252;2023-11-19T07:41:48;13.50;79.80
439;DHT22;206;48.782;9.252;2023-11-19T07:44:14;13.50;79.30
439;DHT22;206;48.782;9.252;2023-11-19T07:46:40;13.50;79.50
439;DHT22;206;48.782;9.252;2023-11-19T07:49:07;13.50;79.80
439;DHT22;206;48.782;9.252;2023-11-19T07:51:33;13.60;79.60
439;DHT22;206;48.782;9.252;2023-11-19T07:53:58;13.60;79.50
439;DHT22;206;48.782;9.252;2023-11-19T07:56:24;13.60;79.10
439;DHT22;206;48.782;9.252;2023-11-19T07:58:50;13.60;79.30
439;DHT22;206;48.782;9.252;2023-11-19T08:01:16;13.50;79.60
439;DHT22;206;48.782;9.252;2023-11-19T08:03:41;13.60;79.40
439;DHT22;206;48.782;9.252;2023-11-19T08:06:07;13.60;79.20
439;DHT22;206;48.782;9.252;2023-11-19T08:08:33;13.60;79.10
439;DHT22;206;48.782;9.252;2023-11-19T08:11:00;13.70;78.90
439;DHT22;206;48.782;9.252;2023-11-19T08:13:25;13.70;78.00
439;DHT22;206;48.782;9.252;2023-11-19T08:15:51;13.70;77.90
439;DHT22;206;48.782;9.252;2023-11-19T08:18:17;13.80;77.60
439;DHT22;206;48.782;9.252;2023-11-19T08:20:44;13.90;76.50
439;DHT22;206;48.782;9.252;2023-11-19T08:23:10;13.90;76.50
439;DHT22;206;48.782;9.252;2023-11-19T08:25:36;14.00;75.80
439;DHT22;206;48.782;9.252;2023-11-19T08:28:01;14.00;75.00
439;DHT22;206;48.782;9.252;2023-11-19T08:30:29;14.00;74.60
439;DHT22;206;48.782;9.252;2023-11-19T08:32:54;14.00;74.80
439;DHT22;206;48.782;9.252;2023-11-19T08:35:20;14.00;75.00
439;DHT22;206;48.782;9.252;2023-11-19T08:37:46;14.10;74.10
439;DHT22;206;48.782;9.252;2023-11-19T08:40:12;14.20;74.00
439;DHT22;206;48.782;9.252;2023-11-19T08:42:40;14.40;72.60
439;DHT22;206;48.782;9.252;2023-11-19T08:45:07;14.50;71.50
439;DHT22;206;48.782;9.252;2023-11-19T08:47:35;14.60;70.90
439;DHT22;206;48.782;9.252;2023-11-19T08:50:01;14.80;70.00
439;DHT22;206;48.782;9.252;2023-11-19T08:52:26;14.90;67.60
439;DHT22;206;48.782;9.252;2023-11-19T08:54:52;15.00;67.30
439;DHT22;206;48.782;9.252;2023-11-19T08:57:18;15.10;66.20
439;DHT22;206;48.782;9.252;2023-11-19T08:59:43;15.10;64.80
439;DHT22;206;48.782;9.252;2023-11-19T09:02:11;15.10;64.70
439;DHT22;206;48.782;9.252;2023-11-19T09:04:36;15.10;64.40
439;DHT22;206;48.782;9.252;2023-11-19T09:07:02;15.00;65.00
439;DHT22;206;48.782;9.252;2023-11-19T09:09:28;15.10;65.30
439;DHT22;206;48.782;9.252;2023-11-19T09:11:55;15.10;64.10
439;DHT22;206;48.782;9.252;2023-11-19T09:14:21;15.20;64.70
439;DHT22;206;48.782;9.252;2023-11-19T09:16:51;15.20;63.80
439;DHT22;206;48.782;9.252;2023-11-19T09:19:17;15.30;63.50
439;DHT22;206;48.782;9.252;2023-11-19T09:21:43;15.40;63.90
439;DHT22;206;48.782;9.252;2023-11-19T09:24:09;15.40;63.10
439;DHT22;206;48.782;9.252;2023-11-19T09:26:34;15.60;61.40
439;DHT22;206;48.782;9.252;2023-11-19T09:29:01;15.70;60.00
439;DHT22;206;48.782;9.252;2023-11-19T09:31:27;15.70;59.00
439;DHT22;206;48.782;9.252;2023-11-19T09:33:52;15.80;59.10
439;DHT22;206;48.782;9.252;2023-11-19T09:36:18;15.80;59.40
439;DHT22;206;48.782;9.252;2023-11-19T09:38:44;15.90;59.20
439;DHT22;206;48.782;9.252;2023-11-19T09:41:10;15.90;58.50
439;DHT22;206;48.782;9.252;2023-11-19T09:43:42;15.90;58.40
439;DHT22;206;48.782;9.252;2023-11-19T09:46:13;16.00;56.80
439;DHT22;206;48.782;9.252;2023-11-19T09:48:40;16.20;56.00
439;DHT22;206;48.782;9.252;2023-11-19T09:51:08;16.30;55.60
439;DHT22;206;48.782;9.252;2023-11-19T09:53:35;16.30;55.30
439;DHT22;206;48.782;9.252;2023-11-19T09:56:02;16.50;54.30
439;DHT22;206;48.782;9.252;2023-11-19T09:58:35;16.70;54.20
439;DHT22;206;48.782;9.252;2023-11-19T10:01:00;16.90;52.20
439;DHT22;206;48.782;9.252;2023-11-19T10:03:33;17.00;50.40
439;DHT22;206;48.782;9.252;2023-11-19T10:05:59;17.00;49.90
439;DHT22;206;48.782;9.252;2023-11-19T10:08:26;17.00;49.90
439;DHT22;206;48.782;9.252;2023-11-19T10:10:51;17.10;50.00
439;DHT22;206;48.782;9.252;2023-11-19T10:13:17;17.30;49.70
439;DHT22;206;48.782;9.252;2023-11-19T10:15:43;17.50;49.30
439;DHT22;206;48.782;9.252;2023-11-19T10:18:09;17.70;46.50
439;DHT22;206;48.782;9.252;2023-11-19T10:20:41;17.90;46.30
439;DHT22;206;48.782;9.252;2023-11-19T10:23:06;18.00;44.00
439;DHT22;206;48.782;9.252;2023-11-19T10:25:33;18.10;44.60
439;DHT22;206;48.782;9.252;2023-11-19T10:27:59;18.20;45.10
439;DHT22;206;48.782;9.252;2023-11-19T10:30:29;18.40;42.60
439;DHT22;206;48.782;9.252;2023-11-19T10:33:05;18.50;41.30
439;DHT22;206;48.782;9.252;2023-11-19T10:35:54;18.40;41.10
439;DHT22;206;48.782;9.252;2023-11-19T10:38:20;18.30;41.20
439;DHT22;206;48.782;9.252;2023-11-19T10:40:47;18.30;41.70
439;DHT22;206;48.782;9.252;2023-11-19T10:43:13;18.20;41.70
439;DHT22;206;48.782;9.252;2023-11-19T10:45:39;18.20;41.80
439;DHT22;206;48.782;9.252;2023-11-19T10:48:06;18.20;42.10
439;DHT22;206;48.782;9.252;2023-11-19T10:50:36;18.20;42.40
439;DHT22;206;48.782;9.252;2023-11-19T10:53:04;18.20;41.10
439;DHT22;206;48.782;9.252;2023-11-19T10:55:31;18.20;41.40
439;DHT22;206;48.782;9.252;2023-11-19T10:58:07;18.20;41.10
439;DHT22;206;48.782;9.252;2023-11-19T11:00:44;18.20;41.10
439;DHT22;206;48.782;9.252;2023-11-19T11:03:17;18.30;41.20
439;DHT22;206;48.782;9.252;2023-11-19T11:05:45;18.50;40.40
439;DHT22;206;48.782;9.252;2023-11-19T11:08:13;18.60;39.80
439;DHT22;206;48.782;9.252;2023-11-19T11:10:52;18.60;37.50
439;DHT22;206;48.782;9.252;2023-11-19T11:13:18;18.70;36.80
439;DHT22;206;48.782;9.252;2023-11-19T11:15:48;18.60;36.30
439;DHT22;206;48.782;9.252;2023-11-19T11:18:14;18.70;36.40
439;DHT22;206;48.782;9.252;2023-11-19T11:20:41;18.40;34.00
439;DHT22;206;48.782;9.252;2023-11-19T11:23:37;18.30;34.30
439;DHT22;206;48.782;9.252;2023-11-19T11:26:32;18.30;32.80
439;DHT22;206;48.782;9.252;2023-11-19T11:32:03;17.60;31.20
439;DHT22;206;48.782;9.252;2023-11-19T11:39:35;17.50;31.30
439;DHT22;206;48.782;9.252;2023-11-19T11:47:23;17.40;31.50
439;DHT22;206;48.782;9.252;2023-11-19T11:49:49;17.30;32.40
439;DHT22;206;48.782;9.252;2023-11-19T11:52:16;17.10;32.00
439;DHT22;206;48.782;9.252;2023-11-19T11:54:42;17.00;32.80
439;DHT22;206;48.782;9.252;2023-11-19T11:57:11;17.00;33.90
439;DHT22;206;48.782;9.252;2023-11-19T11:59:45;17.00;34.10
439;DHT22;206;48.782;9.252;2023-11-19T12:02:12;17.20;34.10
439;DHT22;206;48.782;9.252;2023-11-19T12:04:40;17.30;33.10
439;DHT22;206;48.782;9.252;2023-11-19T12:07:16;17.50;33.20
439;DHT22;206;48.782;9.252;2023-11-19T12:09:47;17.70;32.60
439;DHT22;206;48.782;9.252;2023-11-19T12:12:26;17.90;32.60
439;DHT22;206;48.782;9.252;2023-11-19T12:20:06;18.30;30.90
439;DHT22;206;48.782;9.252;2023-11-19T12:22:40;18.40;31.00
439;DHT22;206;48.782;9.252;2023-11-19T12:25:07;18.60;30.30
439;DHT22;206;48.782;9.252;2023-11-19T12:27:34;18.80;29.60
439;DHT22;206;48.782;9.252;2023-11-19T12:30:03;19.00;28.90
439;DHT22;206;48.782;9.252;2023-11-19T12:32:41;18.90;28.80
439;DHT22;206;48.782;9.252;2023-11-19T12:35:08;18.80;27.80
439;DHT22;206;48.782;9.252;2023-11-19T12:37:44;18.80;26.70
439;DHT22;206;48.782;9.252;2023-11-19T12:42:40;18.70;27.60
439;DHT22;206;48.782;9.252;2023-11-19T12:45:06;18.60;27.20
439;DHT22;206;48.782;9.252;2023-11-19T12:47:33;18.40;26.10
439;DHT22;206;48.782;9.252;2023-11-19T12:49:59;18.30;26.40
439;DHT22;206;48.782;9.252;2023-11-19T12:52:24;18.20;25.50
439;DHT22;206;48.782;9.252;2023-11-19T12:54:50;18.00;25.90
439;DHT22;206;48.782;9.252;2023-11-19T12:57:16;17.80;25.80
439;DHT22;206;48.782;9.252;2023-11-19T12:59:55;17.60;25.00
439;DHT22;206;48.782;9.252;2023-11-19T13:02:23;17.60;26.00
439;DHT22;206;48.782;9.252;2023-11-19T13:05:22;17.60;26.80
439;DHT22;206;48.782;9.252;2023-11-19T13:07:47;17.70;26.80
439;DHT22;206;48.782;9.252;2023-11-19T13:10:13;17.70;27.40
439;DHT22;206;48.782;9.252;2023-11-19T13:12:39;17.70;26.30
439;DHT22;206;48.782;9.252;2023-11-19T13:15:05;17.70;27.00
439;DHT22;206;48.782;9.252;2023-11-19T13:17:30;17.80;26.80
439;DHT22;206;48.782;9.252;2023-11-19T13:19:56;17.90;26.30
439;DHT22;206;48.782;9.252;2023-11-19T13:22:22;17.80;24.80
439;DHT22;206;48.782;9.252;2023-11-19T13:24:48;17.80;25.30
439;DHT22;206;48.782;9.252;2023-11-19T13:27:14;17.80;24.90
439;DHT22;206;48.782;9.252;2023-11-19T13:29:39;17.80;24.30
439;DHT22;206;48.782;9.252;2023-11-19T13:32:05;17.80;24.50
439;DHT22;206;48.782;9.252;2023-11-19T13:34:31;17.80;24.10
439;DHT22;206;48.782;9.252;2023-11-19T13:36:56;17.70;24.00
439;DHT22;206;48.782;9.252;2023-11-19T13:39:22;17.60;23.80
439;DHT22;206;48.782;9.252;2023-11-19T13:41:49;17.60;23.80
439;DHT22;206;48.782;9.252;2023-11-19T13:44:16;17.50;23.90
439;DHT22;206;48.782;9.252;2023-11-19T13:46:44;17.40;24.30
439;DHT22;206;48.782;9.252;2023-11-19T13:49:11;17.40;24.70
439;DHT22;206;48.782;9.252;2023-11-19T13:51:36;17.40;25.30
439;DHT22;206;48.782;9.252;2023-11-19T13:54:02;17.40;25.20
439;DHT22;206;48.782;9.252;2023-11-19T13:56:28;17.40;25.20
439;DHT22;206;48.782;9.252;2023-11-19T13:58:54;17.40;25.30
439;DHT22;206;48.782;9.252;2023-11-19T14:01:19;17.40;25.50
439;DHT22;206;48.782;9.252;2023-11-19T14:03:45;17.30;25.50
439;DHT22;206;48.782;9.252;2023-11-19T14:06:10;17.20;25.60
439;DHT22;206;48.782;9.252;2023-11-19T14:08:38;17.10;25.30
439;DHT22;206;48.782;9.252;2023-11-19T14:11:03;17.00;25.40
439;DHT22;206;48.782;9.252;2023-11-19T14:13:30;16.90;25.40
439;DHT22;206;48.782;9.252;2023-11-19T14:15:56;16.80;25.80
439;DHT22;206;48.782;9.252;2023-11-19T14:18:21;16.70;25.80
439;DHT22;206;48.782;9.252;2023-11-19T14:20:48;16.70;25.50
439;DHT22;206;48.782;9.252;2023-11-19T14:23:14;16.60;25.30
439;DHT22;206;48.782;9.252;2023-11-19T14:25:39;16.60;25.50
439;DHT22;206;48.782;9.252;2023-11-19T14:28:05;16.50;25.20
439;DHT22;206;48.782;9.252;2023-11-19T14:30:31;16.60;25.20
439;DHT22;206;48.782;9.252;2023-11-19T14:32:56;16.50;25.50
439;DHT22;206;48.782;9.252;2023-11-19T14:35:22;16.50;25.50
439;DHT22;206;48.782;9.252;2023-11-19T14:37:48;16.50;25.20
439;DHT22;206;48.782;9.252;2023-11-19T14:40:14;16.50;25.50
439;DHT22;206;48.782;9.252;2023-11-19T14:42:40;16.50;25.10
439;DHT22;206;48.782;9.252;2023-11-19T14:45:08;16.40;25.50
439;DHT22;206;48.782;9.252;2023-11-19T14:47:37;16.40;25.70
439;DHT22;206;48.782;9.252;2023-11-19T14:50:02;16.40;26.10
439;DHT22;206;48.782;9.252;2023-11-19T14:52:28;16.40;26.50
439;DHT22;206;48.782;9.252;2023-11-19T14:54:54;16.30;26.80
439;DHT22;206;48.782;9.252;2023-11-19T14:57:19;16.30;27.10
439;DHT22;206;48.782;9.252;2023-11-19T14:59:45;16.40;27.60
439;DHT22;206;48.782;9.252;2023-11-19T15:02:11;16.60;27.30
439;DHT22;206;48.782;9.252;2023-11-19T15:04:37;16.70;27.00
439;DHT22;206;48.782;9.252;2023-11-19T15:07:02;16.60;27.10
439;DHT22;206;48.782;9.252;2023-11-19T15:09:29;16.40;27.70
439;DHT22;206;48.782;9.252;2023-11-19T15:11:55;16.20;27.80
439;DHT22;206;48.782;9.252;2023-11-19T15:14:21;16.10;28.20
439;DHT22;206;48.782;9.252;2023-11-19T15:16:47;16.00;28.20
439;DHT22;206;48.782;9.252;2023-11-19T15:19:13;15.90;28.00
439;DHT22;206;48.782;9.252;2023-11-19T15:21:40;15.80;28.20
439;DHT22;206;48.782;9.252;2023-11-19T15:24:06;15.70;28.00
439;DHT22;206;48.782;9.252;2023-11-19T15:26:36;15.60;27.80
439;DHT22;206;48.782;9.252;2023-11-19T15:29:02;15.60;27.90
439;DHT22;206;48.782;9.252;2023-11-19T15:31:28;15.60;28.30
439;DHT22;206;48.782;9.252;2023-11-19T15:33:54;15.50;28.50
439;DHT22;206;48.782;9.252;2023-11-19T15:36:20;15.40;28.60
439;DHT22;206;48.782;9.252;2023-11-19T15:38:46;15.40;28.80
439;DHT22;206;48.782;9.252;2023-11-19T15:41:11;15.30;28.80
439;DHT22;206;48.782;9.252;2023-11-19T15:43:37;15.20;28.70
439;DHT22;206;48.782;9.252;2023-11-19T15:46:10;15.20;28.70
439;DHT22;206;48.782;9.252;2023-11-19T15:48:36;15.10;28.70
439;DHT22;206;48.782;9.252;2023-11-19T15:51:02;15.10;29.30
439;DHT22;206;48.782;9.252;2023-11-19T15:53:29;15.10;28.90
439;DHT22;206;48.782;9.252;2023-11-19T15:55:56;15.00;29.30
439;DHT22;206;48.782;9.252;2023-11-19T15:58:22;14.90;29.70
439;DHT22;206;48.782;9.252;2023-11-19T16:00:48;14.90;30.30
439;DHT22;206;48.782;9.252;2023-11-19T16:03:14;14.80;30.00
439;DHT22;206;48.782;9.252;2023-11-19T16:05:40;14.80;30.50
439;DHT22;206;48.782;9.252;2023-11-19T16:08:05;14.80;30.40
439;DHT22;206;48.782;9.252;2023-11-19T16:10:31;14.80;30.50
439;DHT22;206;48.782;9.252;2023-11-19T16:12:57;14.70;30.50
439;DHT22;206;48.782;9.252;2023-11-19T16:15:22;14.70;30.90
439;DHT22;206;48.782;9.252;2023-11-19T16:17:48;14.70;30.80
439;DHT22;206;48.782;9.252;2023-11-19T16:20:14;14.60;30.50
439;DHT22;206;48.782;9.252;2023-11-19T16:22:40;14.60;30.90
439;DHT22;206;48.782;9.252;2023-11-19T16:25:08;14.60;31.20
439;DHT22;206;48.782;9.252;2023-11-19T16:27:34;14.60;31.80
439;DHT22;206;48.782;9.252;2023-11-19T16:30:00;14.50;32.00
439;DHT22;206;48.782;9.252;2023-11-19T16:32:26;14.60;32.00
439;DHT22;206;48.782;9.252;2023-11-19T16:34:52;14.50;32.60
439;DHT22;206;48.782;9.252;2023-11-19T16:37:18;14.50;32.70
439;DHT22;206;48.782;9.252;2023-11-19T16:39:46;14.50;32.90
439;DHT22;206;48.782;9.252;2023-11-19T16:42:12;14.40;33.10
439;DHT22;206;48.782;9.252;2023-11-19T16:44:39;14.40;33.40
439;DHT22;206;48.782;9.252;2023-11-19T16:47:05;14.30;33.90
439;DHT22;206;48.782;9.252;2023-11-19T16:49:32;14.30;34.10
439;DHT22;206;48.782;9.252;2023-11-19T16:51:58;14.30;34.80
439;DHT22;206;48.782;9.252;2023-11-19T16:54:24;14.20;35.20